Time;durP1;ratioP1;P1;durP2;ratioP2;P2;SDS_P1;SDS_P2;PMS_P1;PMS_P2;Temp;Humidity;BMP_temperature;BMP_pressure;BME280_temperature;BME280_humidity;BME280_pressure;Samples;Min_cycle;Max_cycle;Signal;HPM_P1;HPM_P2
2022/08/08 00:00:25;;;;;;;7.65;5.13;;;;;;;16.15;100.00;91126.28;5034762;28;20090;-69
2022/08/08 00:03:17;;;;;;;8.50;5.50;;;;;;;16.16;100.00;91130.53;5034945;28;20384;-69
2022/08/08 00:06:04;;;;;;;6.75;4.72;;;;;;;16.10;100.00;91123.84;5034683;28;20025;-69
2022/08/08 00:08:47;;;;;;;7.28;5.70;;;;;;;16.12;100.00;91116.22;5034509;28;20481;-69
2022/08/08 00:11:21;;;;;;;7.80;5.00;;;;;;;16.13;100.00;91123.16;5014870;28;20042;-69
2022/08/08 00:14:05;;;;;;;6.75;5.15;;;;;;;16.16;100.00;91122.47;5014774;28;20049;-69
2022/08/08 00:16:42;;;;;;;9.30;4.72;;;;;;;16.16;100.00;91125.16;5013233;28;20033;-69
2022/08/08 00:19:26;;;;;;;7.32;4.78;;;;;;;16.17;100.00;91126.72;5014694;28;20073;-69
2022/08/08 00:22:02;;;;;;;7.82;4.75;;;;;;;16.10;100.00;91119.25;5014675;28;20090;-69
2022/08/08 00:24:44;;;;;;;4.57;3.90;;;;;;;16.12;100.00;91121.59;5014525;28;20034;-69
2022/08/08 00:27:12;;;;;;;6.88;4.72;;;;;;;16.09;100.00;91128.41;5014452;28;20475;-69
2022/08/08 00:30:02;;;;;;;6.05;4.63;;;;;;;16.12;100.00;91122.38;5014482;28;20523;-69
2022/08/08 00:32:49;;;;;;;6.10;4.35;;;;;;;16.08;100.00;91116.09;5014433;28;20029;-69
2022/08/08 00:35:22;;;;;;;7.10;4.63;;;;;;;16.06;100.00;91123.72;5014430;28;20030;-69
2022/08/08 00:37:56;;;;;;;;;;;;;;;16.03;100.00;91123.59;5014764;28;20036;-69
2022/08/08 00:40:35;;;;;;;;;;;;;;;15.95;100.00;91121.84;5014840;28;20426;-69
2022/08/08 00:43:51;;;;;;;8.77;4.85;;;;;;;15.90;100.00;91111.31;5014244;28;19925;-69
2022/08/08 00:46:43;;;;;;;7.45;4.28;;;;;;;15.90;100.00;91124.72;4980627;28;20054;-69
2022/08/08 00:49:33;;;;;;;5.85;4.43;;;;;;;15.90;100.00;91124.72;5014128;28;20037;-69
2022/08/08 00:52:04;;;;;;;5.18;4.18;;;;;;;15.84;100.00;91122.28;5014092;28;20036;-69
2022/08/08 00:54:38;;;;;;;5.63;3.97;;;;;;;15.86;100.00;91119.25;5013952;28;20041;-69
2022/08/08 00:57:39;;;;;;;6.30;4.65;;;;;;;15.81;100.00;91128.31;5013969;28;20030;-69
2022/08/08 01:00:08;;;;;;;5.53;4.85;;;;;;;15.74;100.00;91130.75;5014004;28;20024;-69
2022/08/08 01:03:08;;;;;;;6.40;4.68;;;;;;;15.73;100.00;91128.41;5013891;28;20487;-69
2022/08/08 01:06:12;;;;;;;5.75;4.13;;;;;;;15.69;100.00;91125.63;5012896;28;20060;-69
2022/08/08 01:09:15;;;;;;;6.57;4.70;;;;;;;15.70;100.00;91127.19;5013899;28;20562;-69
2022/08/08 01:12:18;;;;;;;5.32;3.85;;;;;;;15.71;100.00;91126.06;5033496;28;20052;-69
2022/08/08 01:15:20;;;;;;;6.32;4.30;;;;;;;15.72;100.00;91119.59;5033357;28;20045;-69
2022/08/08 01:18:24;;;;;;;5.20;4.20;;;;;;;15.67;100.00;91109.09;5033319;28;20029;-70
2022/08/08 01:21:07;;;;;;;6.75;4.60;;;;;;;15.67;100.00;91114.44;5033389;28;20036;-69
2022/08/08 01:23:54;;;;;;;6.13;4.53;;;;;;;15.61;100.00;91118.44;5033269;28;20487;-69
2022/08/08 01:26:48;;;;;;;5.75;4.50;;;;;;;15.60;100.00;91108.84;5033194;28;20072;-69
2022/08/08 01:29:35;;;;;;;5.32;4.20;;;;;;;15.64;100.00;91122.38;5033177;28;20025;-69
2022/08/08 01:32:39;;;;;;;5.53;4.20;;;;;;;15.55;100.00;91119.75;5033162;28;20560;-69
2022/08/08 01:35:07;;;;;;;;;;;;;;;15.54;100.00;91118.97;5033538;28;20033;-69
2022/08/08 01:38:02;;;;;;;7.65;4.63;;;;;;;15.50;100.00;91112.72;5032934;28;19967;-69
2022/08/08 01:41:02;;;;;;;6.35;4.30;;;;;;;15.55;100.00;91109.03;5029744;28;20065;-69
2022/08/08 01:43:35;;;;;;;8.73;5.25;;;;;;;15.51;100.00;91113.50;5019158;28;20085;-70
2022/08/08 01:46:22;;;;;;;6.32;4.50;;;;;;;15.52;100.00;91115.06;5032905;28;20033;-70
2022/08/08 01:49:19;;;;;;;6.80;4.50;;;;;;;15.51;100.00;91114.28;5032780;28;20025;-70
2022/08/08 01:52:12;;;;;;;5.10;3.78;;;;;;;15.49;100.00;91110.38;5009262;28;20121;-69
2022/08/08 01:55:12;;;;;;;5.15;4.35;;;;;;;15.51;100.00;91122.34;5032569;28;20395;-69
2022/08/08 01:57:56;;;;;;;4.85;3.80;;;;;;;15.53;100.00;91117.41;4999160;28;20050;-69
2022/08/08 02:00:26;;;;;;;5.97;4.47;;;;;;;15.50;100.00;91112.72;5032612;28;20033;-70
2022/08/08 02:03:06;;;;;;;4.72;3.38;;;;;;;15.43;100.00;91122.44;5032557;28;20037;-69
2022/08/08 02:05:44;;;;;;;6.03;4.45;;;;;;;15.42;100.00;91127.00;5170951;23;20063;-69
2022/08/08 02:08:46;;;;;;;6.45;4.28;;;;;;;15.37;100.00;91129.13;5052350;28;20033;-68
2022/08/08 02:11:24;;;;;;;4.80;3.95;;;;;;;15.32;100.00;91132.81;5052623;28;20025;-68
2022/08/08 02:14:04;;;;;;;4.93;3.95;;;;;;;15.32;100.00;91132.81;5052329;28;20033;-69
2022/08/08 02:17:03;;;;;;;8.90;4.40;;;;;;;15.28;100.00;91140.72;5051981;28;20082;-69
2022/08/08 02:19:39;;;;;;;5.43;3.92;;;;;;;15.30;100.00;91143.06;5052157;28;20087;-69
2022/08/08 02:24:53;;;;;;;9.32;5.80;;;;;;;15.22;100.00;91142.03;5052234;28;20090;-68
2022/08/08 02:27:46;;;;;;;7.43;4.40;;;;;;;15.20;100.00;91141.59;5051982;28;20037;-69
2022/08/08 02:30:21;;;;;;;5.32;4.30;;;;;;;15.21;100.00;91147.75;5051953;28;20108;-69
2022/08/08 02:33:19;;;;;;;5.88;4.03;;;;;;;15.24;100.00;91153.22;5051877;28;20476;-69
2022/08/08 02:36:06;;;;;;;5.60;4.07;;;;;;;15.20;100.00;91156.88;5051684;28;20021;-68
2022/08/08 02:38:48;;;;;;;6.18;4.88;;;;;;;15.13;100.00;91148.59;5051765;28;20036;-68
2022/08/08 02:41:32;;;;;;;5.90;4.40;;;;;;;15.06;100.00;91151.03;5051797;28;20044;-68
2022/08/08 02:44:12;;;;;;;6.03;3.83;;;;;;;14.96;100.00;91157.56;5051721;28;20025;-69
2022/08/08 02:47:02;;;;;;;6.88;3.90;;;;;;;14.90;100.00;91158.91;5051603;28;20037;-68
2022/08/08 02:49:53;;;;;;;6.88;4.75;;;;;;;14.90;100.00;91157.00;5051603;28;20151;-68
2022/08/08 02:52:39;;;;;;;6.40;4.53;;;;;;;14.84;100.00;91163.69;5051768;28;20112;-68
2022/08/08 02:55:23;;;;;;;6.03;4.18;;;;;;;14.70;100.00;91157.81;5051315;28;20501;-68
2022/08/08 02:58:07;;;;;;;;;;;;;;;14.62;100.00;91158.66;5051870;28;20461;-68
2022/08/08 03:01:06;;;;;;;5.55;4.05;;;;;;;14.68;100.00;91157.38;5051456;28;19967;-67
2022/08/08 03:04:02;;;;;;;6.78;4.28;;;;;;;14.63;100.00;91161.00;5033535;28;20033;-67
2022/08/08 03:06:58;;;;;;;5.82;4.22;;;;;;;14.48;100.00;91153.56;5051073;28;20136;-67
2022/08/08 03:09:54;;;;;;;5.70;4.00;;;;;;;14.42;100.00;91165.53;5051554;28;20056;-67
2022/08/08 03:12:51;;;;;;;5.32;4.00;;;;;;;14.39;100.00;91167.00;5051275;28;20025;-67
2022/08/08 03:15:31;;;;;;;6.47;4.47;;;;;;;14.39;100.00;91166.19;5051050;28;20401;-67
2022/08/08 03:18:13;;;;;;;4.85;4.13;;;;;;;14.35;100.00;91157.22;5051194;28;20048;-67
2022/08/08 03:20:49;;;;;;;5.68;4.28;;;;;;;14.42;100.00;91170.13;5034824;28;20025;-67
2022/08/08 03:23:16;;;;;;;5.45;4.10;;;;;;;14.48;100.00;91174.19;5051056;28;20032;-67
2022/08/08 03:25:46;;;;;;;7.50;5.22;;;;;;;14.48;100.00;91172.28;5050897;28;20022;-67
2022/08/08 03:28:20;;;;;;;7.28;4.25;;;;;;;14.44;100.00;91168.72;5050534;28;20025;-67
2022/08/08 03:30:46;;;;;;;6.55;4.22;;;;;;;14.49;100.00;91175.75;5051086;28;20025;-67
2022/08/08 03:33:18;;;;;;;5.85;4.15;;;;;;;14.55;100.00;91177.16;5051092;28;20410;-67
2022/08/08 03:35:46;;;;;;;5.60;3.85;;;;;;;14.55;100.00;91182.50;5050882;28;20029;-67
2022/08/08 03:38:11;;;;;;;6.43;5.05;;;;;;;14.62;100.00;91174.72;5050814;28;20056;-67
2022/08/08 03:40:37;;;;;;;6.35;4.28;;;;;;;14.66;100.00;91172.94;5050790;28;20041;-67
2022/08/08 03:43:05;;;;;;;5.07;4.10;;;;;;;14.70;100.00;91173.09;5050846;28;20460;-67
2022/08/08 03:45:31;;;;;;;8.77;5.05;;;;;;;14.71;100.00;91172.78;5050717;28;20078;-67
2022/08/08 03:47:57;;;;;;;5.72;4.30;;;;;;;14.79;100.00;91189.88;5050842;28;20454;-67
2022/08/08 03:50:24;;;;;;;5.28;4.20;;;;;;;14.81;100.00;91185.75;5050791;28;20542;-68
2022/08/08 03:52:50;;;;;;;10.10;5.15;;;;;;;14.83;100.00;91193.44;5032947;28;20116;-68
2022/08/08 03:55:18;;;;;;;6.53;4.75;;;;;;;14.89;100.00;91189.47;5050641;28;20068;-67
2022/08/08 03:57:54;;;;;;;7.53;4.30;;;;;;;14.87;100.00;91191.72;5050827;28;20032;-67
2022/08/08 04:00:25;;;;;;;5.53;4.10;;;;;;;14.93;100.00;91188.50;5050815;28;20072;-67
2022/08/08 04:02:55;;;;;;;5.10;3.67;;;;;;;15.00;100.00;91196.00;5050777;28;20111;-67
2022/08/08 04:05:23;;;;;;;12.88;7.60;;;;;;;14.90;100.00;91174.97;5035480;28;20045;-67
2022/08/08 04:07:49;;;;;;;5.32;4.03;;;;;;;15.02;100.00;91193.78;5030640;28;20041;-67
2022/08/08 04:10:14;;;;;;;5.63;4.13;;;;;;;15.06;100.00;91188.56;5030468;28;20029;-67
2022/08/08 04:12:40;;;;;;;5.75;3.67;;;;;;;15.09;100.00;91194.03;5030596;28;20036;-67
2022/08/08 04:15:06;;;;;;;4.13;3.53;;;;;;;15.18;100.00;91184.03;5029805;28;20049;-67
2022/08/08 04:17:31;;;;;;;5.28;3.47;;;;;;;15.23;100.00;91183.81;5030526;28;20083;-67
2022/08/08 04:19:57;;;;;;;6.07;3.92;;;;;;;15.24;100.00;91174.66;5030578;28;20102;-66
2022/08/08 04:22:25;;;;;;;4.95;3.90;;;;;;;15.41;100.00;91187.09;5030467;28;20026;-65
2022/08/08 04:24:52;;;;;;;5.32;4.13;;;;;;;15.48;100.00;91179.31;5030315;28;20101;-67
2022/08/08 04:27:18;;;;;;;4.22;3.33;;;;;;;15.49;100.00;91191.59;5030546;28;20025;-67
2022/08/08 04:29:43;;;;;;;5.07;4.07;;;;;;;15.60;100.00;91191.97;5030557;28;20038;-67
2022/08/08 04:32:13;;;;;;;4.55;3.78;;;;;;;15.77;100.00;91189.09;5030574;28;20056;-67
2022/08/08 04:34:39;;;;;;;4.32;3.85;;;;;;;15.82;100.00;91188.91;5030357;28;20442;-67
2022/08/08 04:37:05;;;;;;;5.60;4.28;;;;;;;15.93;100.00;91191.13;5030570;28;20116;-67
2022/08/08 04:39:31;;;;;;;4.72;3.92;;;;;;;15.98;100.00;91194.41;5030536;28;20060;-67
2022/08/08 04:41:56;;;;;;;5.07;3.83;;;;;;;16.11;100.00;91190.59;5033595;28;20082;-67
2022/08/08 04:44:22;;;;;;;5.18;4.05;;;;;;;16.16;100.00;91193.06;5033929;28;20034;-67
2022/08/08 04:46:47;;;;;;;4.40;3.47;;;;;;;16.31;100.00;91199.66;5033992;28;20077;-67
2022/08/08 04:49:13;;;;;;;3.50;2.97;;;;;;;16.39;100.00;91201.41;5034004;28;20458;-67
2022/08/08 04:51:38;;;;;;;5.30;3.70;;;;;;;16.51;100.00;91205.22;5033940;28;20045;-67
2022/08/08 04:54:04;;;;;;;4.50;3.25;;;;;;;16.55;100.00;91203.44;5033753;28;20044;-67
2022/08/08 04:56:29;;;;;;;3.72;3.13;;;;;;;16.61;100.00;91212.84;5033656;28;20021;-67
2022/08/08 04:58:55;;;;;;;3.33;2.85;;;;;;;16.68;100.00;91207.69;5033734;28;20028;-67
2022/08/08 05:01:20;;;;;;;4.22;3.63;;;;;;;16.76;100.00;91212.16;5033684;28;20475;-67
2022/08/08 05:03:46;;;;;;;5.13;4.18;;;;;;;16.76;100.00;91204.13;5033672;28;20032;-66
2022/08/08 05:06:11;;;;;;;6.78;4.63;;;;;;;16.96;100.00;91207.75;5033228;28;20045;-67
2022/08/08 05:08:37;;;;;;;4.97;3.38;;;;;;;17.16;100.00;91201.41;5033633;28;20025;-67
2022/08/08 05:11:02;;;;;;;3.97;3.58;;;;;;;17.32;100.00;91206.84;5033575;28;20112;-67
2022/08/08 05:13:28;;;;;;;4.13;3.60;;;;;;;17.94;100.00;91200.06;5015813;28;20120;-67
2022/08/08 05:15:53;;;;;;;3.40;3.10;;;;;;;20.98;100.00;91208.41;5033321;28;20028;-67
2022/08/08 05:18:18;;;;;;;3.67;3.08;;;;;;;23.13;87.71;91207.56;5033334;28;20108;-67
2022/08/08 05:20:44;;;;;;;3.80;3.22;;;;;;;24.44;72.43;91210.03;5033398;28;20025;-67
2022/08/08 05:23:09;;;;;;;3.47;3.00;;;;;;;26.00;64.25;91218.41;5033375;28;20562;-67
2022/08/08 05:25:35;;;;;;;3.22;2.80;;;;;;;26.86;59.63;91211.31;5033165;28;20026;-67
2022/08/08 05:28:00;;;;;;;3.10;2.67;;;;;;;27.68;56.28;91219.56;5033271;28;20095;-67
2022/08/08 05:30:26;;;;;;;3.58;3.03;;;;;;;28.04;55.97;91219.94;5033066;28;20112;-67
2022/08/08 05:32:52;;;;;;;4.45;3.30;;;;;;;27.70;55.04;91211.72;5033144;28;20033;-68
2022/08/08 05:35:21;;;;;;;3.17;2.85;;;;;;;26.51;56.95;91226.75;5032825;28;20483;-67
2022/08/08 05:37:51;;;;;;;3.45;2.88;;;;;;;27.53;55.48;91220.88;5032966;28;20056;-68
2022/08/08 05:40:17;;;;;;;3.85;3.17;;;;;;;28.32;54.55;91227.03;5032926;28;20434;-68
2022/08/08 05:42:48;;;;;;;3.13;2.83;;;;;;;29.46;51.73;91225.34;5032939;28;20534;-67
2022/08/08 05:45:14;;;;;;;3.38;2.75;;;;;;;30.32;49.31;91232.00;5033153;28;20025;-67
2022/08/08 05:47:41;;;;;;;3.58;2.97;;;;;;;28.99;51.84;91226.50;5032890;28;20108;-68
2022/08/08 05:50:07;;;;;;;4.60;3.30;;;;;;;30.04;50.83;91227.81;5032856;28;20465;-68
2022/08/08 05:52:34;;;;;;;3.28;2.97;;;;;;;31.36;47.10;91230.50;5032332;28;20033;-68
2022/08/08 05:55:09;;;;;;;3.65;3.13;;;;;;;30.84;47.83;91223.06;5032543;28;20569;-68
2022/08/08 05:57:36;;;;;;;4.05;3.10;;;;;;;32.55;44.85;91225.00;5032662;28;20091;-68
2022/08/08 06:00:07;;;;;;;4.47;3.10;;;;;;;33.02;44.12;91230.69;5032484;28;20029;-68
2022/08/08 06:05:20;;;;;;;4.63;3.35;;;;;;;34.28;41.92;91230.13;5032448;28;20061;-68
2022/08/08 06:07:49;;;;;;;3.90;3.42;;;;;;;34.72;41.17;91241.94;5032462;28;20100;-68
2022/08/08 06:10:15;;;;;;;4.60;4.20;;;;;;;35.12;40.36;91242.03;5032386;28;20061;-67
2022/08/08 06:12:42;;;;;;;4.68;3.90;;;;;;;36.21;39.43;91249.88;5032376;28;20549;-69
2022/08/08 06:15:10;;;;;;;4.72;4.00;;;;;;;34.82;39.86;91244.31;5032138;28;20026;-68
2022/08/08 06:17:38;;;;;;;4.35;3.80;;;;;;;34.05;41.74;91245.88;5032352;28;20061;-70
2022/08/08 06:20:09;;;;;;;5.28;4.00;;;;;;;36.19;39.17;91251.56;5032264;28;20542;-69
2022/08/08 06:22:35;;;;;;;5.75;4.30;;;;;;;38.68;35.98;91253.75;5031919;28;20021;-69
2022/08/08 06:25:01;;;;;;;6.25;4.32;;;;;;;38.88;35.55;91253.84;5031840;28;20033;-70
2022/08/08 06:27:39;;;;;;;5.88;4.05;;;;;;;38.45;35.28;91254.53;5032066;28;20119;-69
2022/08/08 06:30:11;;;;;;;5.13;4.60;;;;;;;38.19;35.97;91249.50;5032039;28;20116;-70
2022/08/08 06:32:44;;;;;;;4.53;3.95;;;;;;;39.86;34.24;91262.06;5031882;28;20026;-68
2022/08/08 06:35:14;;;;;;;5.95;4.30;;;;;;;37.99;35.93;91249.28;5031961;28;20076;-67
2022/08/08 06:37:46;;;;;;;4.82;4.30;;;;;;;38.94;35.85;91251.16;5031874;28;20033;-67
2022/08/08 06:40:14;;;;;;;4.13;3.63;;;;;;;38.51;35.22;91256.19;5031613;28;20071;-69
2022/08/08 06:42:50;;;;;;;3.92;3.63;;;;;;;40.56;33.03;91266.81;5032125;28;20094;-70
2022/08/08 06:45:18;;;;;;;5.88;4.05;;;;;;;40.37;33.33;91263.50;5031628;28;20521;-70
2022/08/08 06:47:43;;;;;;;4.45;4.05;;;;;;;40.55;32.59;91260.44;5031741;28;20032;-68
2022/08/08 06:50:10;;;;;;;4.55;4.03;;;;;;;41.51;31.77;91259.44;5031629;28;20033;-68
2022/08/08 06:52:36;;;;;;;4.20;3.80;;;;;;;41.42;31.68;91262.41;5031546;28;20045;-67
2022/08/08 06:55:04;;;;;;;6.78;4.25;;;;;;;42.22;30.82;91260.44;5031373;28;20051;-68
2022/08/08 06:57:29;;;;;;;5.05;4.13;;;;;;;42.08;30.79;91261.38;5031554;28;20029;-68
2022/08/08 06:59:55;;;;;;;8.73;7.30;;;;;;;41.74;31.52;91249.97;5031424;28;20029;-68
2022/08/08 07:02:26;;;;;;;5.45;4.63;;;;;;;40.96;32.21;91261.19;5031129;28;20041;-68
2022/08/08 07:05:01;;;;;;;5.15;4.07;;;;;;;40.44;32.41;91257.56;5030721;28;20172;-68
2022/08/08 07:07:32;;;;;;;6.03;4.22;;;;;;;41.11;32.05;91266.66;5031375;28;20029;-68
2022/08/08 07:10:09;;;;;;;5.03;4.05;;;;;;;42.59;30.62;91259.59;5031099;28;20041;-68
2022/08/08 07:12:39;;;;;;;5.20;3.80;;;;;;;40.52;32.16;91257.88;5031420;28;20025;-68
2022/08/08 07:15:07;;;;;;;6.10;4.90;;;;;;;40.70;32.53;91258.34;5030909;28;20507;-68
2022/08/08 07:17:41;;;;;;;5.45;3.88;;;;;;;41.46;31.41;91257.34;5031096;28;20038;-69
2022/08/08 07:20:08;;;;;;;6.05;4.13;;;;;;;38.93;34.03;91252.41;5031331;28;20033;-70
2022/08/08 07:22:41;;;;;;;6.22;5.13;;;;;;;38.86;34.21;91256.34;5031525;28;20180;-70
2022/08/08 07:25:10;;;;;;;5.18;4.20;;;;;;;40.68;32.71;91252.50;5031107;28;20029;-70
2022/08/08 07:27:40;;;;;;;4.22;3.78;;;;;;;40.52;32.79;91258.66;5031432;28;20033;-70
2022/08/08 07:30:06;;;;;;;5.15;3.53;;;;;;;36.45;36.54;91249.25;5031207;28;20040;-70
2022/08/08 07:32:32;;;;;;;4.20;3.80;;;;;;;34.62;39.59;91240.34;5031208;28;20495;-69
2022/08/08 07:34:59;;;;;;;3.92;3.25;;;;;;;34.50;39.98;91247.47;5030914;28;20479;-70
2022/08/08 07:37:25;;;;;;;4.43;3.60;;;;;;;35.35;39.51;91252.59;5031167;28;20034;-67
2022/08/08 07:39:51;;;;;;;3.88;3.47;;;;;;;36.71;36.29;91247.69;5031362;28;20151;-66
2022/08/08 07:42:19;;;;;;;4.28;3.88;;;;;;;37.30;35.58;91247.44;5031052;28;20021;-66
2022/08/08 07:44:46;;;;;;;3.90;3.40;;;;;;;35.18;38.53;91248.50;5030988;28;20045;-66
2022/08/08 07:47:12;;;;;;;5.35;3.60;;;;;;;36.32;37.85;91245.88;5030905;28;20057;-66
2022/08/08 07:49:38;;;;;;;4.90;3.90;;;;;;;37.21;37.12;91253.00;5031047;28;20088;-66
2022/08/08 07:52:06;;;;;;;4.40;3.70;;;;;;;37.76;36.08;91248.03;5030965;28;20033;-66
2022/08/08 07:54:54;;;;;;;5.72;4.25;;;;;;;36.38;37.97;91247.59;5030828;28;20029;-66
2022/08/08 07:57:51;;;;;;;4.03;3.40;;;;;;;38.72;35.42;91251.53;5031271;28;20056;-66
2022/08/08 08:00:17;;;;;;;3.60;3.30;;;;;;;36.95;36.25;91244.31;5030885;28;20034;-66
2022/08/08 08:02:54;;;;;;;3.03;2.83;;;;;;;36.22;37.07;91256.94;5030951;28;20026;-66
2022/08/08 08:05:29;;;;;;;3.92;3.13;;;;;;;35.90;38.13;91240.91;5030612;28;20106;-66
2022/08/08 08:07:59;;;;;;;4.32;3.70;;;;;;;35.49;38.00;91239.41;5030833;28;20112;-66
2022/08/08 08:10:27;;;;;;;4.47;3.63;;;;;;;35.17;39.26;91227.59;5030773;28;20052;-66
2022/08/08 08:13:19;;;;;;;3.25;2.95;;;;;;;36.33;38.53;91239.13;5030821;28;20025;-66
2022/08/08 08:15:49;;;;;;;4.45;3.33;;;;;;;37.78;35.61;91236.44;5033854;28;20197;-66
2022/08/08 08:18:16;;;;;;;3.25;2.72;;;;;;;38.76;34.36;91229.88;5034798;28;20171;-66
2022/08/08 08:20:42;;;;;;;3.15;2.83;;;;;;;37.70;35.79;91236.00;5034545;28;20030;-64
2022/08/08 08:23:07;;;;;;;2.58;2.38;;;;;;;38.56;32.17;91240.84;5034454;28;20026;-64
2022/08/08 08:25:32;;;;;;;2.45;2.25;;;;;;;38.58;31.59;91230.78;5034333;28;20104;-64
2022/08/08 08:27:58;;;;;;;2.75;2.33;;;;;;;38.53;32.22;91230.69;5034453;28;20021;-64
2022/08/08 08:30:26;;;;;;;2.20;2.00;;;;;;;39.71;32.21;91233.47;5034350;28;20514;-64
2022/08/08 08:32:52;;;;;;;3.58;2.50;;;;;;;42.45;29.11;91234.13;5034308;28;20116;-64
2022/08/08 08:35:18;;;;;;;1.92;1.83;;;;;;;40.14;28.62;91228.25;5034385;28;20025;-64
2022/08/08 08:37:44;;;;;;;2.20;1.85;;;;;;;41.08;28.16;91228.56;5034477;28;20133;-64
2022/08/08 08:40:12;;;;;;;3.17;2.22;;;;;;;42.15;27.44;91230.16;5034174;28;20542;-64
2022/08/08 08:42:39;;;;;;;1.80;1.70;;;;;;;41.45;27.06;91230.66;5034172;28;20049;-64
2022/08/08 08:45:06;;;;;;;4.00;1.98;;;;;;;37.79;30.47;91215.78;5034023;28;20038;-64
2022/08/08 08:47:33;;;;;;;3.63;1.70;;;;;;;35.77;31.79;91227.16;5033862;28;20103;-64
2022/08/08 08:49:59;;;;;;;2.45;2.10;;;;;;;38.29;29.48;91220.38;5034253;28;20448;-64
2022/08/08 08:52:25;;;;;;;2.45;1.58;;;;;;;36.11;31.35;91219.84;5033846;28;20535;-64
2022/08/08 08:54:55;;;;;;;2.35;2.15;;;;;;;36.56;29.76;91217.06;5033675;28;20040;-64
2022/08/08 08:57:22;;;;;;;2.33;2.10;;;;;;;38.69;29.61;91208.00;5033833;28;20590;-64
2022/08/08 08:59:52;;;;;;;1.90;1.80;;;;;;;38.31;28.68;91197.66;5033834;28;20491;-65
2022/08/08 09:02:20;;;;;;;1.65;1.30;;;;;;;39.36;28.49;91213.94;5033731;28;20033;-64
2022/08/08 09:04:48;;;;;;;1.80;1.70;;;;;;;40.33;27.41;91207.19;5033321;28;20057;-65
2022/08/08 09:07:21;;;;;;;2.03;1.83;;;;;;;38.27;28.38;91195.06;5033608;28;20040;-65
2022/08/08 09:09:49;;;;;;;1.60;1.50;;;;;;;37.69;28.01;91193.56;5033547;28;20124;-65
2022/08/08 09:12:16;;;;;;;2.97;1.88;;;;;;;38.96;29.14;91187.47;5033540;28;20037;-64
2022/08/08 09:14:43;;;;;;;1.50;1.38;;;;;;;38.96;27.31;91190.25;5033460;28;20053;-64
2022/08/08 09:17:09;;;;;;;2.38;1.70;;;;;;;35.51;31.50;91198.22;5033469;28;20029;-64
2022/08/08 09:19:34;;;;;;;2.22;1.80;;;;;;;31.86;34.25;91191.50;5033734;28;20048;-64
2022/08/08 09:22:01;;;;;;;1.80;1.70;;;;;;;31.94;35.53;91187.34;5033355;28;20407;-64
2022/08/08 09:24:27;;;;;;;2.22;2.00;;;;;;;33.76;35.27;91181.78;5033283;28;20033;-64
2022/08/08 09:26:56;;;;;;;1.80;1.60;;;;;;;33.49;35.17;91196.91;5032557;28;20491;-64
2022/08/08 09:29:23;;;;;;;4.65;1.70;;;;;;;31.28;36.73;91185.91;5033241;28;20033;-64
2022/08/08 09:31:54;;;;;;;2.20;1.77;;;;;;;30.04;37.68;91190.22;5033218;28;20041;-64
2022/08/08 09:34:22;;;;;;;2.47;2.10;;;;;;;29.34;39.19;91187.53;5033101;28;20107;-64
2022/08/08 09:36:54;;;;;;;2.25;1.83;;;;;;;29.39;39.91;91183.56;5032999;28;20076;-65
2022/08/08 09:39:23;;;;;;;2.27;1.83;;;;;;;28.99;41.36;91172.50;5029555;28;20028;-65
2022/08/08 09:42:00;;;;;;;2.72;2.50;;;;;;;29.04;43.68;91176.75;5032746;28;20040;-65
2022/08/08 09:44:57;;;;;;;4.43;2.35;;;;;;;28.75;43.02;91168.94;5032940;28;20030;-65
2022/08/08 09:47:27;;;;;;;1.90;1.80;;;;;;;31.49;38.42;91170.84;5032757;28;20033;-66
2022/08/08 09:49:57;;;;;;;2.08;1.80;;;;;;;31.86;37.08;91181.25;5032514;28;20033;-64
2022/08/08 09:52:25;;;;;;;2.75;1.92;;;;;;;30.80;37.84;91178.41;5033060;28;20034;-66
2022/08/08 09:54:52;;;;;;;2.20;2.00;;;;;;;30.80;37.97;91176.44;5032828;28;20076;-66
2022/08/08 09:57:33;;;;;;;2.05;1.90;;;;;;;35.39;33.99;91172.22;5032792;28;20533;-67
2022/08/08 09:59:59;;;;;;;2.67;1.85;;;;;;;37.45;30.92;91170.59;5032703;28;20026;-67
2022/08/08 10:02:33;;;;;;;2.00;1.77;;;;;;;39.25;29.50;91181.13;5032650;28;20549;-67
2022/08/08 10:05:08;;;;;;;2.03;1.80;;;;;;;39.18;28.44;91175.97;5032280;28;20522;-67
2022/08/08 10:07:35;;;;;;;3.05;2.30;;;;;;;37.36;28.54;91163.06;5032583;28;20044;-67
2022/08/08 10:10:01;;;;;;;1.88;1.75;;;;;;;35.88;30.64;91161.09;5032494;28;20063;-67
2022/08/08 10:12:35;;;;;;;1.77;1.67;;;;;;;35.63;32.64;91155.78;5032442;28;20538;-67
2022/08/08 10:15:02;;;;;;;3.33;1.90;;;;;;;34.76;33.02;91154.91;5032309;28;20025;-67
2022/08/08 10:17:31;;;;;;;2.47;2.13;;;;;;;32.91;35.67;91150.31;5032211;28;20061;-67
2022/08/08 10:20:00;;;;;;;2.72;2.05;;;;;;;34.40;34.86;91157.47;5032586;28;20038;-67
2022/08/08 10:22:27;;;;;;;1.92;1.73;;;;;;;37.30;29.41;91155.88;5032229;28;20048;-67
2022/08/08 10:24:59;;;;;;;2.22;2.03;;;;;;;37.55;29.37;91149.09;5032140;28;20029;-67
2022/08/08 10:27:30;;;;;;;2.25;1.60;;;;;;;37.11;28.84;91153.16;5032144;28;20272;-67
2022/08/08 10:30:00;;;;;;;2.05;1.63;;;;;;;35.81;30.54;91149.50;5032149;28;20029;-67
2022/08/08 10:32:36;;;;;;;4.85;1.85;;;;;;;37.67;28.04;91143.28;5032080;28;20419;-67
2022/08/08 10:35:12;;;;;;;2.35;1.80;;;;;;;38.87;26.81;91146.63;5031818;28;20044;-67
2022/08/08 10:37:48;;;;;;;2.38;1.77;;;;;;;39.40;28.24;91147.69;5031915;28;20034;-67
2022/08/08 10:40:15;;;;;;;1.80;1.67;;;;;;;37.91;27.31;91145.31;5031844;28;20029;-67
2022/08/08 10:42:41;;;;;;;2.03;1.60;;;;;;;34.52;30.08;91137.28;5032098;28;20026;-67
2022/08/08 10:45:09;;;;;;;4.53;2.17;;;;;;;35.30;29.95;91134.19;5031787;28;20096;-67
2022/08/08 10:47:35;;;;;;;2.33;2.03;;;;;;;34.74;31.74;91132.47;5031732;28;20513;-67
2022/08/08 10:50:06;;;;;;;3.63;2.90;;;;;;;36.44;30.02;91134.88;5031675;28;20059;-67
2022/08/08 10:52:36;;;;;;;5.10;2.55;;;;;;;36.64;28.75;91130.84;5031945;28;20053;-67
2022/08/08 10:55:12;;;;;;;3.20;2.72;;;;;;;34.26;32.25;91135.91;5031444;28;20032;-67
2022/08/08 10:57:43;;;;;;;2.50;2.17;;;;;;;31.71;33.55;91127.03;5031507;28;20041;-68
2022/08/08 11:00:11;;;;;;;3.35;2.35;;;;;;;30.92;36.01;91137.28;5031419;28;20033;-67
2022/08/08 11:02:38;;;;;;;2.30;2.10;;;;;;;30.51;35.48;91124.13;5031502;28;20116;-68
2022/08/08 11:05:07;;;;;;;4.32;2.08;;;;;;;29.70;37.20;91126.63;5031196;28;20397;-67
2022/08/08 11:07:41;;;;;;;2.20;2.00;;;;;;;29.23;39.70;91124.72;5031613;28;20140;-68
2022/08/08 11:10:13;;;;;;;1.95;1.70;;;;;;;29.25;38.67;91129.00;5031603;28;20049;-67
2022/08/08 11:12:51;;;;;;;2.45;2.20;;;;;;;29.03;41.29;91131.34;5031299;28;20060;-67
2022/08/08 11:15:24;;;;;;;2.33;2.00;;;;;;;28.51;40.40;91121.59;5031101;28;20025;-72
2022/08/08 11:17:51;;;;;;;2.65;2.10;;;;;;;28.47;40.39;91128.31;5031301;28;20100;-71
2022/08/08 11:20:20;;;;;;;1.73;1.60;;;;;;;28.61;41.25;91119.88;5031250;28;20031;-72
2022/08/08 11:23:00;;;;;;;2.17;1.70;;;;;;;32.70;36.20;91118.66;5031122;28;20047;-72
2022/08/08 11:25:31;;;;;;;2.00;1.70;;;;;;;35.38;32.38;91127.19;5031034;28;20026;-73
2022/08/08 11:27:58;;;;;;;1.83;1.50;;;;;;;35.04;32.62;91121.84;5031121;28;20025;-72
2022/08/08 11:30:29;;;;;;;1.80;1.70;;;;;;;33.53;32.63;91122.28;5031150;28;20057;-73
2022/08/08 11:32:57;;;;;;;2.05;1.70;;;;;;;32.08;33.32;91129.16;5031116;28;20037;-73
2022/08/08 11:35:26;;;;;;;1.95;1.80;;;;;;;30.70;34.78;91130.75;5030933;28;20487;-72
2022/08/08 11:37:52;;;;;;;2.42;2.22;;;;;;;29.14;37.21;91123.72;5031149;28;20100;-73
2022/08/08 11:40:17;;;;;;;3.83;2.67;;;;;;;29.30;37.92;91128.53;5031106;28;20064;-73
2022/08/08 11:42:43;;;;;;;2.78;2.47;;;;;;;29.06;38.97;91109.38;5031104;28;20024;-73
2022/08/08 11:45:11;;;;;;;2.33;2.00;;;;;;;29.08;39.48;91108.97;5031002;28;20057;-72
2022/08/08 11:47:38;;;;;;;4.20;2.40;;;;;;;29.81;40.08;91114.22;5013339;28;20033;-73
2022/08/08 11:50:09;;;;;;;6.30;4.88;;;;;;;31.69;36.59;91105.47;5033066;28;20034;-71
2022/08/08 11:52:36;;;;;;;2.67;2.47;;;;;;;33.03;35.17;91108.16;5031270;28;20032;-72
2022/08/08 11:55:16;;;;;;;3.08;2.40;;;;;;;32.08;34.39;91098.09;5034635;28;20038;-72
2022/08/08 11:57:41;;;;;;;3.22;2.60;;;;;;;30.90;36.13;91098.47;5034749;28;20509;-72
2022/08/08 12:00:13;;;;;;;3.10;2.72;;;;;;;29.81;38.13;91092.28;5034319;28;20117;-72
2022/08/08 12:02:49;;;;;;;2.58;2.38;;;;;;;31.04;37.24;91091.84;5034696;28;20025;-70
2022/08/08 12:05:15;;;;;;;2.40;2.20;;;;;;;32.32;35.14;91091.09;5034440;28;20056;-71